sensor_id;sensor_type;location;lat;lon;timestamp;P1;durP1;ratioP1;P2;durP2;ratioP2
7965;SDS011;4028;43.272;26.932;2023-03-01T00:00:37;11.87;;;10.10;;
7965;SDS011;4028;43.272;26.932;2023-03-01T00:03:03;11.43;;;9.57;;
7965;SDS011;4028;43.272;26.932;2023-03-01T00:05:29;11.27;;;10.00;;
7965;SDS011;4028;43.272;26.932;2023-03-01T00:07:54;11.37;;;10.20;;
7965;SDS011;4028;43.272;26.932;2023-03-01T00:10:19;10.63;;;9.53;;
7965;SDS011;4028;43.272;26.932;2023-03-01T00:12:45;10.10;;;9.00;;
7965;SDS011;4028;43.272;26.932;2023-03-01T00:15:11;11.87;;;9.03;;
7965;SDS011;4028;43.272;26.932;2023-03-01T00:17:36;9.83;;;8.83;;
7965;SDS011;4028;43.272;26.932;2023-03-01T00:20:02;10.67;;;9.57;;
7965;SDS011;4028;43.272;26.932;2023-03-01T00:22:28;9.70;;;8.70;;
7965;SDS011;4028;43.272;26.932;2023-03-01T00:24:54;11.47;;;9.03;;
7965;SDS011;4028;43.272;26.932;2023-03-01T00:27:19;10.30;;;8.93;;
7965;SDS011;4028;43.272;26.932;2023-03-01T00:29:45;10.50;;;8.93;;
7965;SDS011;4028;43.272;26.932;2023-03-01T00:32:10;10.87;;;9.23;;
7965;SDS011;4028;43.272;26.932;2023-03-01T00:34:35;10.57;;;8.77;;
7965;SDS011;4028;43.272;26.932;2023-03-01T00:37:01;9.37;;;8.47;;
7965;SDS011;4028;43.272;26.932;2023-03-01T00:39:30;10.50;;;9.07;;
7965;SDS011;4028;43.272;26.932;2023-03-01T00:41:57;10.00;;;8.87;;
7965;SDS011;4028;43.272;26.932;2023-03-01T00:44:22;9.67;;;8.67;;
7965;SDS011;4028;43.272;26.932;2023-03-01T00:46:47;11.57;;;8.97;;
7965;SDS011;4028;43.272;26.932;2023-03-01T00:49:13;13.17;;;10.50;;
7965;SDS011;4028;43.272;26.932;2023-03-01T00:51:39;12.07;;;9.10;;
7965;SDS011;4028;43.272;26.932;2023-03-01T00:54:07;9.97;;;8.40;;
7965;SDS011;4028;43.272;26.932;2023-03-01T00:56:33;10.77;;;8.93;;
7965;SDS011;4028;43.272;26.932;2023-03-01T00:58:59;10.43;;;8.30;;
7965;SDS011;4028;43.272;26.932;2023-03-01T01:01:26;10.47;;;7.77;;
7965;SDS011;4028;43.272;26.932;2023-03-01T01:03:57;9.07;;;8.17;;
7965;SDS011;4028;43.272;26.932;2023-03-01T01:06:35;9.70;;;7.47;;
7965;SDS011;4028;43.272;26.932;2023-03-01T01:09:08;9.20;;;8.17;;
7965;SDS011;4028;43.272;26.932;2023-03-01T01:11:41;8.93;;;8.00;;
7965;SDS011;4028;43.272;26.932;2023-03-01T01:14:11;11.47;;;7.97;;
7965;SDS011;4028;43.272;26.932;2023-03-01T01:16:37;9.00;;;7.10;;
7965;SDS011;4028;43.272;26.932;2023-03-01T01:19:03;8.87;;;7.97;;
7965;SDS011;4028;43.272;26.932;2023-03-01T01:21:28;7.77;;;6.97;;
7965;SDS011;4028;43.272;26.932;2023-03-01T01:23:54;8.33;;;7.53;;
7965;SDS011;4028;43.272;26.932;2023-03-01T01:26:27;7.60;;;6.87;;
7965;SDS011;4028;43.272;26.932;2023-03-01T01:28:54;8.37;;;7.03;;
7965;SDS011;4028;43.272;26.932;2023-03-01T01:31:20;8.20;;;6.63;;
7965;SDS011;4028;43.272;26.932;2023-03-01T01:33:48;8.00;;;7.20;;
7965;SDS011;4028;43.272;26.932;2023-03-01T01:36:14;6.67;;;5.50;;
7965;SDS011;4028;43.272;26.932;2023-03-01T01:38:40;6.50;;;5.73;;
7965;SDS011;4028;43.272;26.932;2023-03-01T01:41:07;7.67;;;5.97;;
7965;SDS011;4028;43.272;26.932;2023-03-01T01:43:37;7.27;;;5.93;;
7965;SDS011;4028;43.272;26.932;2023-03-01T01:49:02;7.57;;;5.70;;
7965;SDS011;4028;43.272;26.932;2023-03-01T01:51:31;6.53;;;5.77;;
7965;SDS011;4028;43.272;26.932;2023-03-01T01:54:03;7.13;;;5.97;;
7965;SDS011;4028;43.272;26.932;2023-03-01T01:56:35;7.07;;;5.90;;
7965;SDS011;4028;43.272;26.932;2023-03-01T01:59:02;6.80;;;6.10;;
7965;SDS011;4028;43.272;26.932;2023-03-01T02:01:28;7.13;;;6.33;;
7965;SDS011;4028;43.272;26.932;2023-03-01T02:03:54;6.37;;;5.77;;
7965;SDS011;4028;43.272;26.932;2023-03-01T02:06:38;7.10;;;6.20;;
7965;SDS011;4028;43.272;26.932;2023-03-01T02:09:11;6.50;;;5.50;;
7965;SDS011;4028;43.272;26.932;2023-03-01T02:11:40;7.47;;;6.27;;
7965;SDS011;4028;43.272;26.932;2023-03-01T02:14:08;7.33;;;6.27;;
7965;SDS011;4028;43.272;26.932;2023-03-01T02:16:33;8.63;;;6.90;;
7965;SDS011;4028;43.272;26.932;2023-03-01T02:18:59;9.00;;;6.03;;
7965;SDS011;4028;43.272;26.932;2023-03-01T02:21:41;7.30;;;6.50;;
7965;SDS011;4028;43.272;26.932;2023-03-01T02:24:32;8.00;;;6.87;;
7965;SDS011;4028;43.272;26.932;2023-03-01T02:27:22;7.13;;;6.00;;
7965;SDS011;4028;43.272;26.932;2023-03-01T02:29:53;8.33;;;6.73;;
7965;SDS011;4028;43.272;26.932;2023-03-01T02:32:19;7.60;;;6.80;;
7965;SDS011;4028;43.272;26.932;2023-03-01T02:34:51;7.57;;;6.50;;
7965;SDS011;4028;43.272;26.932;2023-03-01T02:37:18;8.67;;;6.83;;
7965;SDS011;4028;43.272;26.932;2023-03-01T02:39:50;10.17;;;6.97;;
7965;SDS011;4028;43.272;26.932;2023-03-01T02:42:23;8.97;;;7.20;;
7965;SDS011;4028;43.272;26.932;2023-03-01T02:44:54;8.83;;;6.60;;
7965;SDS011;4028;43.272;26.932;2023-03-01T02:47:19;7.63;;;6.83;;
7965;SDS011;4028;43.272;26.932;2023-03-01T02:49:45;8.40;;;6.53;;
7965;SDS011;4028;43.272;26.932;2023-03-01T02:55:06;7.53;;;6.47;;
7965;SDS011;4028;43.272;26.932;2023-03-01T02:57:35;7.40;;;6.33;;
7965;SDS011;4028;43.272;26.932;2023-03-01T03:00:04;9.97;;;6.80;;
7965;SDS011;4028;43.272;26.932;2023-03-01T03:02:48;6.90;;;6.13;;
7965;SDS011;4028;43.272;26.932;2023-03-01T03:05:16;7.67;;;6.77;;
7965;SDS011;4028;43.272;26.932;2023-03-01T03:07:43;9.63;;;7.13;;
7965;SDS011;4028;43.272;26.932;2023-03-01T03:10:14;8.40;;;7.30;;
7965;SDS011;4028;43.272;26.932;2023-03-01T03:12:49;9.67;;;7.23;;
7965;SDS011;4028;43.272;26.932;2023-03-01T03:15:16;10.07;;;7.97;;
7965;SDS011;4028;43.272;26.932;2023-03-01T03:17:42;11.07;;;8.07;;
7965;SDS011;4028;43.272;26.932;2023-03-01T03:20:08;12.37;;;9.07;;
7965;SDS011;4028;43.272;26.932;2023-03-01T03:22:39;12.73;;;7.90;;
7965;SDS011;4028;43.272;26.932;2023-03-01T03:25:06;10.50;;;7.90;;
7965;SDS011;4028;43.272;26.932;2023-03-01T03:27:35;14.83;;;8.70;;
7965;SDS011;4028;43.272;26.932;2023-03-01T03:30:02;10.83;;;8.33;;
7965;SDS011;4028;43.272;26.932;2023-03-01T03:32:34;10.03;;;8.10;;
7965;SDS011;4028;43.272;26.932;2023-03-01T03:35:23;11.43;;;8.77;;
7965;SDS011;4028;43.272;26.932;2023-03-01T03:37:50;10.60;;;9.07;;
7965;SDS011;4028;43.272;26.932;2023-03-01T03:40:34;12.90;;;9.67;;
7965;SDS011;4028;43.272;26.932;2023-03-01T03:43:09;11.90;;;9.07;;
7965;SDS011;4028;43.272;26.932;2023-03-01T03:45:37;10.83;;;8.90;;
7965;SDS011;4028;43.272;26.932;2023-03-01T03:48:03;12.50;;;8.10;;
7965;SDS011;4028;43.272;26.932;2023-03-01T03:50:30;10.57;;;8.80;;
7965;SDS011;4028;43.272;26.932;2023-03-01T03:52:55;12.03;;;9.00;;
7965;SDS011;4028;43.272;26.932;2023-03-01T03:55:21;10.90;;;8.37;;
7965;SDS011;4028;43.272;26.932;2023-03-01T03:57:47;12.30;;;9.20;;
7965;SDS011;4028;43.272;26.932;2023-03-01T04:00:22;10.07;;;8.90;;
7965;SDS011;4028;43.272;26.932;2023-03-01T04:03:06;12.73;;;8.30;;
7965;SDS011;4028;43.272;26.932;2023-03-01T04:05:33;9.67;;;8.40;;
7965;SDS011;4028;43.272;26.932;2023-03-01T04:07:59;10.53;;;8.43;;
7965;SDS011;4028;43.272;26.932;2023-03-01T04:10:28;10.17;;;8.50;;
7965;SDS011;4028;43.272;26.932;2023-03-01T04:12:55;10.67;;;8.47;;
7965;SDS011;4028;43.272;26.932;2023-03-01T04:15:21;10.37;;;8.70;;
7965;SDS011;4028;43.272;26.932;2023-03-01T04:17:49;10.83;;;8.83;;
7965;SDS011;4028;43.272;26.932;2023-03-01T04:20:37;11.93;;;9.57;;
7965;SDS011;4028;43.272;26.932;2023-03-01T04:23:03;10.67;;;9.33;;
7965;SDS011;4028;43.272;26.932;2023-03-01T04:25:48;9.77;;;8.77;;
7965;SDS011;4028;43.272;26.932;2023-03-01T04:28:23;10.93;;;8.93;;
7965;SDS011;4028;43.272;26.932;2023-03-01T04:30:56;11.37;;;8.57;;
7965;SDS011;4028;43.272;26.932;2023-03-01T04:33:24;10.60;;;9.07;;
7965;SDS011;4028;43.272;26.932;2023-03-01T04:35:50;11.77;;;10.10;;
7965;SDS011;4028;43.272;26.932;2023-03-01T04:38:16;12.53;;;9.50;;
7965;SDS011;4028;43.272;26.932;2023-03-01T04:40:43;12.33;;;9.83;;
7965;SDS011;4028;43.272;26.932;2023-03-01T04:43:09;10.87;;;9.13;;
7965;SDS011;4028;43.272;26.932;2023-03-01T04:45:35;12.97;;;10.07;;
7965;SDS011;4028;43.272;26.932;2023-03-01T04:48:01;11.60;;;9.43;;
7965;SDS011;4028;43.272;26.932;2023-03-01T04:50:27;12.70;;;10.37;;
7965;SDS011;4028;43.272;26.932;2023-03-01T04:52:53;11.10;;;9.53;;
7965;SDS011;4028;43.272;26.932;2023-03-01T04:55:19;11.87;;;9.73;;
7965;SDS011;4028;43.272;26.932;2023-03-01T04:57:45;11.43;;;10.23;;
7965;SDS011;4028;43.272;26.932;2023-03-01T05:00:11;13.77;;;11.50;;
7965;SDS011;4028;43.272;26.932;2023-03-01T05:02:56;14.67;;;11.67;;
7965;SDS011;4028;43.272;26.932;2023-03-01T05:05:29;13.80;;;12.40;;
7965;SDS011;4028;43.272;26.932;2023-03-01T05:08:04;14.17;;;12.67;;
7965;SDS011;4028;43.272;26.932;2023-03-01T05:10:34;15.40;;;13.17;;
7965;SDS011;4028;43.272;26.932;2023-03-01T05:13:00;15.57;;;13.30;;
7965;SDS011;4028;43.272;26.932;2023-03-01T05:15:28;16.33;;;12.33;;
7965;SDS011;4028;43.272;26.932;2023-03-01T05:17:56;16.07;;;13.37;;
7965;SDS011;4028;43.272;26.932;2023-03-01T05:20:28;16.13;;;12.63;;
7965;SDS011;4028;43.272;26.932;2023-03-01T05:22:56;16.93;;;12.57;;
7965;SDS011;4028;43.272;26.932;2023-03-01T05:25:24;19.00;;;12.60;;
7965;SDS011;4028;43.272;26.932;2023-03-01T05:27:50;16.83;;;12.47;;
7965;SDS011;4028;43.272;26.932;2023-03-01T05:30:16;16.43;;;12.37;;
7965;SDS011;4028;43.272;26.932;2023-03-01T05:32:43;13.67;;;12.13;;
7965;SDS011;4028;43.272;26.932;2023-03-01T05:35:12;17.70;;;13.23;;
7965;SDS011;4028;43.272;26.932;2023-03-01T05:37:42;14.93;;;12.57;;
7965;SDS011;4028;43.272;26.932;2023-03-01T05:40:10;13.33;;;11.53;;
7965;SDS011;4028;43.272;26.932;2023-03-01T05:42:44;16.07;;;11.20;;
7965;SDS011;4028;43.272;26.932;2023-03-01T05:45:11;13.33;;;11.80;;
7965;SDS011;4028;43.272;26.932;2023-03-01T05:47:37;13.67;;;11.47;;
7965;SDS011;4028;43.272;26.932;2023-03-01T05:50:09;15.60;;;12.43;;
7965;SDS011;4028;43.272;26.932;2023-03-01T05:52:39;14.03;;;12.53;;
7965;SDS011;4028;43.272;26.932;2023-03-01T05:55:05;15.37;;;12.57;;
7965;SDS011;4028;43.272;26.932;2023-03-01T05:57:31;17.70;;;13.70;;
7965;SDS011;4028;43.272;26.932;2023-03-01T05:59:56;17.53;;;14.10;;
7965;SDS011;4028;43.272;26.932;2023-03-01T06:02:22;16.63;;;13.00;;
7965;SDS011;4028;43.272;26.932;2023-03-01T06:04:48;16.83;;;13.73;;
7965;SDS011;4028;43.272;26.932;2023-03-01T06:07:13;16.90;;;13.50;;
7965;SDS011;4028;43.272;26.932;2023-03-01T06:09:38;17.27;;;13.23;;
7965;SDS011;4028;43.272;26.932;2023-03-01T06:12:04;17.87;;;13.70;;
7965;SDS011;4028;43.272;26.932;2023-03-01T06:14:30;20.17;;;16.43;;
7965;SDS011;4028;43.272;26.932;2023-03-01T06:16:56;26.17;;;21.53;;
7965;SDS011;4028;43.272;26.932;2023-03-01T06:19:22;33.37;;;29.87;;
7965;SDS011;4028;43.272;26.932;2023-03-01T06:21:47;22.13;;;19.60;;
7965;SDS011;4028;43.272;26.932;2023-03-01T06:24:13;22.13;;;17.80;;
7965;SDS011;4028;43.272;26.932;2023-03-01T06:26:38;21.07;;;15.30;;
7965;SDS011;4028;43.272;26.932;2023-03-01T06:29:04;19.53;;;15.20;;
7965;SDS011;4028;43.272;26.932;2023-03-01T06:31:29;20.10;;;17.43;;
7965;SDS011;4028;43.272;26.932;2023-03-01T06:33:55;20.23;;;16.03;;
7965;SDS011;4028;43.272;26.932;2023-03-01T06:36:20;19.83;;;15.90;;
7965;SDS011;4028;43.272;26.932;2023-03-01T06:38:46;20.60;;;15.73;;
7965;SDS011;4028;43.272;26.932;2023-03-01T06:41:12;21.63;;;16.00;;
7965;SDS011;4028;43.272;26.932;2023-03-01T06:43:37;20.57;;;16.07;;
7965;SDS011;4028;43.272;26.932;2023-03-01T06:46:03;21.10;;;15.93;;
7965;SDS011;4028;43.272;26.932;2023-03-01T06:48:31;21.63;;;17.43;;
7965;SDS011;4028;43.272;26.932;2023-03-01T06:50:58;21.30;;;17.53;;
7965;SDS011;4028;43.272;26.932;2023-03-01T06:53:24;22.43;;;17.00;;
7965;SDS011;4028;43.272;26.932;2023-03-01T06:55:56;19.77;;;17.10;;
7965;SDS011;4028;43.272;26.932;2023-03-01T06:58:24;18.53;;;15.67;;
7965;SDS011;4028;43.272;26.932;2023-03-01T07:00:49;18.37;;;14.67;;
7965;SDS011;4028;43.272;26.932;2023-03-01T07:03:15;20.37;;;16.27;;
7965;SDS011;4028;43.272;26.932;2023-03-01T07:05:40;20.13;;;14.83;;
7965;SDS011;4028;43.272;26.932;2023-03-01T07:08:06;17.17;;;14.63;;
7965;SDS011;4028;43.272;26.932;2023-03-01T07:10:31;22.10;;;15.10;;
7965;SDS011;4028;43.272;26.932;2023-03-01T07:12:57;23.70;;;16.53;;
7965;SDS011;4028;43.272;26.932;2023-03-01T07:15:23;19.17;;;16.03;;
7965;SDS011;4028;43.272;26.932;2023-03-01T07:17:49;19.03;;;15.37;;
7965;SDS011;4028;43.272;26.932;2023-03-01T07:20:16;22.50;;;16.50;;
7965;SDS011;4028;43.272;26.932;2023-03-01T07:22:42;22.40;;;15.97;;
7965;SDS011;4028;43.272;26.932;2023-03-01T07:25:08;20.53;;;16.50;;
7965;SDS011;4028;43.272;26.932;2023-03-01T07:27:35;22.77;;;17.33;;
7965;SDS011;4028;43.272;26.932;2023-03-01T07:30:01;20.33;;;16.37;;
7965;SDS011;4028;43.272;26.932;2023-03-01T07:32:26;20.53;;;16.23;;
7965;SDS011;4028;43.272;26.932;2023-03-01T07:34:52;23.47;;;17.53;;
7965;SDS011;4028;43.272;26.932;2023-03-01T07:37:17;22.97;;;17.47;;
7965;SDS011;4028;43.272;26.932;2023-03-01T07:39:43;20.17;;;16.60;;
7965;SDS011;4028;43.272;26.932;2023-03-01T07:42:08;24.00;;;16.87;;
7965;SDS011;4028;43.272;26.932;2023-03-01T07:44:34;21.33;;;17.27;;
7965;SDS011;4028;43.272;26.932;2023-03-01T07:46:59;20.90;;;16.47;;
7965;SDS011;4028;43.272;26.932;2023-03-01T07:49:25;22.07;;;16.13;;
7965;SDS011;4028;43.272;26.932;2023-03-01T07:51:52;25.73;;;17.57;;
7965;SDS011;4028;43.272;26.932;2023-03-01T07:54:17;26.67;;;18.47;;
7965;SDS011;4028;43.272;26.932;2023-03-01T07:56:43;25.03;;;18.80;;
7965;SDS011;4028;43.272;26.932;2023-03-01T07:59:08;21.50;;;16.90;;
7965;SDS011;4028;43.272;26.932;2023-03-01T08:01:34;23.60;;;18.23;;
7965;SDS011;4028;43.272;26.932;2023-03-01T08:03:59;21.03;;;16.87;;
7965;SDS011;4028;43.272;26.932;2023-03-01T08:06:25;19.47;;;16.37;;
7965;SDS011;4028;43.272;26.932;2023-03-01T08:08:51;22.70;;;16.63;;
7965;SDS011;4028;43.272;26.932;2023-03-01T08:11:16;20.53;;;16.27;;
7965;SDS011;4028;43.272;26.932;2023-03-01T08:13:42;19.43;;;15.67;;
7965;SDS011;4028;43.272;26.932;2023-03-01T08:16:12;21.37;;;15.77;;
7965;SDS011;4028;43.272;26.932;2023-03-01T08:18:39;20.00;;;15.97;;
7965;SDS011;4028;43.272;26.932;2023-03-01T08:21:09;19.73;;;15.47;;
7965;SDS011;4028;43.272;26.932;2023-03-01T08:23:36;20.03;;;16.10;;
7965;SDS011;4028;43.272;26.932;2023-03-01T08:26:13;19.23;;;15.03;;
7965;SDS011;4028;43.272;26.932;2023-03-01T08:28:41;21.70;;;16.13;;
7965;SDS011;4028;43.272;26.932;2023-03-01T08:33:44;17.17;;;14.30;;
7965;SDS011;4028;43.272;26.932;2023-03-01T08:36:15;16.17;;;14.30;;
7965;SDS011;4028;43.272;26.932;2023-03-01T08:38:41;17.83;;;14.23;;
7965;SDS011;4028;43.272;26.932;2023-03-01T08:41:07;15.13;;;13.53;;
7965;SDS011;4028;43.272;26.932;2023-03-01T08:43:33;19.30;;;13.73;;
7965;SDS011;4028;43.272;26.932;2023-03-01T08:45:58;15.00;;;13.40;;
7965;SDS011;4028;43.272;26.932;2023-03-01T08:48:24;15.80;;;13.27;;
7965;SDS011;4028;43.272;26.932;2023-03-01T08:50:52;15.83;;;13.40;;
7965;SDS011;4028;43.272;26.932;2023-03-01T08:53:17;20.80;;;14.70;;
7965;SDS011;4028;43.272;26.932;2023-03-01T08:55:43;17.13;;;13.97;;
7965;SDS011;4028;43.272;26.932;2023-03-01T08:58:08;17.60;;;13.50;;
7965;SDS011;4028;43.272;26.932;2023-03-01T09:00:34;19.37;;;15.50;;
7965;SDS011;4028;43.272;26.932;2023-03-01T09:02:59;16.37;;;14.00;;
7965;SDS011;4028;43.272;26.932;2023-03-01T09:05:25;25.40;;;18.67;;
7965;SDS011;4028;43.272;26.932;2023-03-01T09:07:50;24.37;;;16.67;;
7965;SDS011;4028;43.272;26.932;2023-03-01T09:10:16;17.80;;;14.60;;
7965;SDS011;4028;43.272;26.932;2023-03-01T09:12:42;20.33;;;14.60;;
7965;SDS011;4028;43.272;26.932;2023-03-01T09:15:08;18.60;;;15.27;;
7965;SDS011;4028;43.272;26.932;2023-03-01T09:17:34;19.43;;;14.93;;
7965;SDS011;4028;43.272;26.932;2023-03-01T09:19:59;25.67;;;21.60;;
7965;SDS011;4028;43.272;26.932;2023-03-01T09:22:25;16.97;;;14.67;;
7965;SDS011;4028;43.272;26.932;2023-03-01T09:24:50;19.30;;;15.27;;
7965;SDS011;4028;43.272;26.932;2023-03-01T09:27:16;18.07;;;13.90;;
7965;SDS011;4028;43.272;26.932;2023-03-01T09:29:43;17.73;;;13.90;;
7965;SDS011;4028;43.272;26.932;2023-03-01T09:32:09;18.13;;;14.67;;
7965;SDS011;4028;43.272;26.932;2023-03-01T09:34:35;19.87;;;13.93;;
7965;SDS011;4028;43.272;26.932;2023-03-01T09:37:23;17.73;;;13.60;;
7965;SDS011;4028;43.272;26.932;2023-03-01T09:39:49;18.43;;;14.50;;
7965;SDS011;4028;43.272;26.932;2023-03-01T09:42:15;18.47;;;15.33;;
7965;SDS011;4028;43.272;26.932;2023-03-01T09:47:30;19.97;;;14.17;;
7965;SDS011;4028;43.272;26.932;2023-03-01T09:50:02;18.30;;;13.73;;
7965;SDS011;4028;43.272;26.932;2023-03-01T09:54:55;21.70;;;15.67;;
7965;SDS011;4028;43.272;26.932;2023-03-01T09:57:35;20.50;;;16.33;;
7965;SDS011;4028;43.272;26.932;2023-03-01T10:00:16;21.80;;;15.57;;
7965;SDS011;4028;43.272;26.932;2023-03-01T10:05:53;19.33;;;15.50;;
7965;SDS011;4028;43.272;26.932;2023-03-01T10:08:27;19.47;;;15.83;;
7965;SDS011;4028;43.272;26.932;2023-03-01T10:11:00;19.23;;;16.37;;
7965;SDS011;4028;43.272;26.932;2023-03-01T10:13:36;19.57;;;15.70;;
7965;SDS011;4028;43.272;26.932;2023-03-01T10:16:28;18.50;;;15.07;;
7965;SDS011;4028;43.272;26.932;2023-03-01T10:19:22;23.10;;;16.37;;
7965;SDS011;4028;43.272;26.932;2023-03-01T10:21:53;18.57;;;15.03;;
7965;SDS011;4028;43.272;26.932;2023-03-01T10:24:22;20.43;;;17.10;;
7965;SDS011;4028;43.272;26.932;2023-03-01T10:26:51;19.43;;;15.07;;
7965;SDS011;4028;43.272;26.932;2023-03-01T10:29:22;19.73;;;15.33;;
7965;SDS011;4028;43.272;26.932;2023-03-01T10:31:51;19.77;;;14.67;;
7965;SDS011;4028;43.272;26.932;2023-03-01T10:36:48;20.83;;;14.70;;
7965;SDS011;4028;43.272;26.932;2023-03-01T10:39:23;22.63;;;16.30;;
7965;SDS011;4028;43.272;26.932;2023-03-01T10:49:52;22.30;;;16.60;;
7965;SDS011;4028;43.272;26.932;2023-03-01T10:52:21;27.07;;;17.70;;
7965;SDS011;4028;43.272;26.932;2023-03-01T10:54:54;24.03;;;18.50;;
7965;SDS011;4028;43.272;26.932;2023-03-01T10:57:33;22.20;;;18.13;;
7965;SDS011;4028;43.272;26.932;2023-03-01T11:00:22;25.40;;;17.23;;
7965;SDS011;4028;43.272;26.932;2023-03-01T11:05:24;26.63;;;18.60;;
7965;SDS011;4028;43.272;26.932;2023-03-01T11:07:55;26.60;;;19.07;;
7965;SDS011;4028;43.272;26.932;2023-03-01T11:10:23;24.10;;;17.40;;
7965;SDS011;4028;43.272;26.932;2023-03-01T11:12:52;21.13;;;16.00;;
7965;SDS011;4028;43.272;26.932;2023-03-01T11:15:28;23.90;;;17.10;;
7965;SDS011;4028;43.272;26.932;2023-03-01T11:17:54;19.57;;;15.90;;
7965;SDS011;4028;43.272;26.932;2023-03-01T11:22:56;23.70;;;16.30;;
7965;SDS011;4028;43.272;26.932;2023-03-01T11:25:26;23.73;;;17.63;;
7965;SDS011;4028;43.272;26.932;2023-03-01T11:27:58;20.60;;;15.70;;
7965;SDS011;4028;43.272;26.932;2023-03-01T11:30:27;20.00;;;16.37;;
7965;SDS011;4028;43.272;26.932;2023-03-01T11:35:49;22.10;;;15.53;;
7965;SDS011;4028;43.272;26.932;2023-03-01T11:38:24;19.30;;;15.80;;
7965;SDS011;4028;43.272;26.932;2023-03-01T11:48:37;26.80;;;16.83;;
7965;SDS011;4028;43.272;26.932;2023-03-01T11:51:06;30.00;;;17.30;;
7965;SDS011;4028;43.272;26.932;2023-03-01T11:56:34;32.33;;;21.77;;
7965;SDS011;4028;43.272;26.932;2023-03-01T12:02:00;25.77;;;18.73;;
7965;SDS011;4028;43.272;26.932;2023-03-01T12:15:28;32.10;;;18.87;;
7965;SDS011;4028;43.272;26.932;2023-03-01T12:18:30;28.33;;;18.43;;
7965;SDS011;4028;43.272;26.932;2023-03-01T12:21:07;27.60;;;19.37;;
7965;SDS011;4028;43.272;26.932;2023-03-01T12:26:45;35.00;;;19.47;;
7965;SDS011;4028;43.272;26.932;2023-03-01T12:29:26;35.47;;;19.93;;
7965;SDS011;4028;43.272;26.932;2023-03-01T12:32:13;34.57;;;19.13;;
7965;SDS011;4028;43.272;26.932;2023-03-01T12:50:51;28.53;;;18.03;;
7965;SDS011;4028;43.272;26.932;2023-03-01T12:56:21;26.17;;;18.07;;
7965;SDS011;4028;43.272;26.932;2023-03-01T13:09:19;24.27;;;16.77;;
7965;SDS011;4028;43.272;26.932;2023-03-01T13:12:31;25.67;;;16.73;;
7965;SDS011;4028;43.272;26.932;2023-03-01T13:15:42;21.77;;;16.43;;
7965;SDS011;4028;43.272;26.932;2023-03-01T13:23:03;23.13;;;17.20;;
7965;SDS011;4028;43.272;26.932;2023-03-01T13:25:32;23.83;;;17.53;;
7965;SDS011;4028;43.272;26.932;2023-03-01T13:28:36;31.57;;;25.00;;
7965;SDS011;4028;43.272;26.932;2023-03-01T13:31:02;26.93;;;20.07;;
7965;SDS011;4028;43.272;26.932;2023-03-01T13:35:55;25.57;;;19.47;;
7965;SDS011;4028;43.272;26.932;2023-03-01T13:38:38;26.33;;;19.27;;
7965;SDS011;4028;43.272;26.932;2023-03-01T13:41:09;36.13;;;22.47;;
7965;SDS011;4028;43.272;26.932;2023-03-01T13:43:36;27.57;;;20.97;;
7965;SDS011;4028;43.272;26.932;2023-03-01T13:46:10;35.07;;;21.50;;
7965;SDS011;4028;43.272;26.932;2023-03-01T13:48:42;26.67;;;20.20;;
7965;SDS011;4028;43.272;26.932;2023-03-01T13:51:10;27.43;;;20.30;;
7965;SDS011;4028;43.272;26.932;2023-03-01T13:53:39;29.17;;;21.10;;
7965;SDS011;4028;43.272;26.932;2023-03-01T13:56:14;28.90;;;21.40;;
7965;SDS011;4028;43.272;26.932;2023-03-01T13:58:47;29.43;;;22.70;;
7965;SDS011;4028;43.272;26.932;2023-03-01T14:01:32;32.00;;;23.23;;
7965;SDS011;4028;43.272;26.932;2023-03-01T14:04:00;33.13;;;23.63;;
7965;SDS011;4028;43.272;26.932;2023-03-01T14:06:28;28.57;;;22.50;;
7965;SDS011;4028;43.272;26.932;2023-03-01T14:20:12;30.27;;;21.80;;
7965;SDS011;4028;43.272;26.932;2023-03-01T14:22:42;27.73;;;20.00;;
7965;SDS011;4028;43.272;26.932;2023-03-01T14:25:19;26.87;;;19.60;;
7965;SDS011;4028;43.272;26.932;2023-03-01T14:28:16;28.83;;;21.47;;
7965;SDS011;4028;43.272;26.932;2023-03-01T14:30:49;26.50;;;20.80;;
7965;SDS011;4028;43.272;26.932;2023-03-01T14:35:56;31.63;;;23.30;;
7965;SDS011;4028;43.272;26.932;2023-03-01T14:38:35;33.23;;;23.97;;
7965;SDS011;4028;43.272;26.932;2023-03-01T14:41:03;27.53;;;22.47;;
7965;SDS011;4028;43.272;26.932;2023-03-01T14:43:32;30.27;;;22.97;;
7965;SDS011;4028;43.272;26.932;2023-03-01T14:45:59;26.13;;;22.13;;
7965;SDS011;4028;43.272;26.932;2023-03-01T14:48:24;30.93;;;23.17;;
7965;SDS011;4028;43.272;26.932;2023-03-01T14:50:53;29.97;;;23.07;;
7965;SDS011;4028;43.272;26.932;2023-03-01T14:53:22;28.97;;;23.17;;
7965;SDS011;4028;43.272;26.932;2023-03-01T14:55:52;30.47;;;22.10;;
7965;SDS011;4028;43.272;26.932;2023-03-01T14:58:21;27.23;;;22.60;;
7965;SDS011;4028;43.272;26.932;2023-03-01T15:00:59;26.47;;;22.73;;
7965;SDS011;4028;43.272;26.932;2023-03-01T15:03:34;30.33;;;22.70;;
7965;SDS011;4028;43.272;26.932;2023-03-01T15:06:05;28.37;;;23.37;;
7965;SDS011;4028;43.272;26.932;2023-03-01T15:08:32;31.77;;;25.20;;
7965;SDS011;4028;43.272;26.932;2023-03-01T15:11:00;33.17;;;24.93;;
7965;SDS011;4028;43.272;26.932;2023-03-01T15:13:31;29.63;;;24.57;;
7965;SDS011;4028;43.272;26.932;2023-03-01T15:16:22;27.57;;;23.23;;
7965;SDS011;4028;43.272;26.932;2023-03-01T15:18:49;29.03;;;22.37;;
7965;SDS011;4028;43.272;26.932;2023-03-01T15:21:24;30.07;;;21.80;;
7965;SDS011;4028;43.272;26.932;2023-03-01T15:29:22;27.23;;;19.47;;
7965;SDS011;4028;43.272;26.932;2023-03-01T15:32:05;24.53;;;19.97;;
7965;SDS011;4028;43.272;26.932;2023-03-01T15:34:48;22.10;;;19.07;;
7965;SDS011;4028;43.272;26.932;2023-03-01T15:37:36;26.53;;;20.43;;
7965;SDS011;4028;43.272;26.932;2023-03-01T15:42:56;25.30;;;20.77;;
7965;SDS011;4028;43.272;26.932;2023-03-01T15:45:29;29.13;;;22.13;;
7965;SDS011;4028;43.272;26.932;2023-03-01T15:48:00;28.90;;;24.03;;
7965;SDS011;4028;43.272;26.932;2023-03-01T15:50:31;26.40;;;21.70;;
7965;SDS011;4028;43.272;26.932;2023-03-01T15:52:59;25.07;;;20.67;;
7965;SDS011;4028;43.272;26.932;2023-03-01T15:55:27;21.47;;;18.37;;
7965;SDS011;4028;43.272;26.932;2023-03-01T15:57:58;26.40;;;21.43;;
7965;SDS011;4028;43.272;26.932;2023-03-01T16:00:26;28.77;;;22.33;;
7965;SDS011;4028;43.272;26.932;2023-03-01T16:02:52;28.33;;;21.43;;
7965;SDS011;4028;43.272;26.932;2023-03-01T16:05:22;23.63;;;19.83;;
7965;SDS011;4028;43.272;26.932;2023-03-01T16:07:48;24.73;;;18.70;;
7965;SDS011;4028;43.272;26.932;2023-03-01T16:10:14;23.33;;;19.37;;
7965;SDS011;4028;43.272;26.932;2023-03-01T16:12:40;23.13;;;19.87;;
7965;SDS011;4028;43.272;26.932;2023-03-01T16:15:13;22.87;;;18.73;;
7965;SDS011;4028;43.272;26.932;2023-03-01T16:17:43;22.60;;;17.57;;
7965;SDS011;4028;43.272;26.932;2023-03-01T16:20:09;20.07;;;16.40;;
7965;SDS011;4028;43.272;26.932;2023-03-01T16:22:36;19.20;;;17.10;;
7965;SDS011;4028;43.272;26.932;2023-03-01T16:25:01;23.20;;;18.27;;
7965;SDS011;4028;43.272;26.932;2023-03-01T16:27:27;21.07;;;18.40;;
7965;SDS011;4028;43.272;26.932;2023-03-01T16:29:53;26.57;;;19.40;;
7965;SDS011;4028;43.272;26.932;2023-03-01T16:32:18;25.47;;;22.77;;
7965;SDS011;4028;43.272;26.932;2023-03-01T16:34:44;26.57;;;20.57;;
7965;SDS011;4028;43.272;26.932;2023-03-01T16:37:09;26.87;;;21.40;;
7965;SDS011;4028;43.272;26.932;2023-03-01T16:39:37;26.13;;;20.53;;
7965;SDS011;4028;43.272;26.932;2023-03-01T16:42:03;23.27;;;18.87;;
7965;SDS011;4028;43.272;26.932;2023-03-01T16:44:28;25.40;;;19.90;;
7965;SDS011;4028;43.272;26.932;2023-03-01T16:46:54;24.47;;;19.53;;
7965;SDS011;4028;43.272;26.932;2023-03-01T16:49:19;21.90;;;19.53;;
7965;SDS011;4028;43.272;26.932;2023-03-01T16:51:45;21.70;;;18.90;;
7965;SDS011;4028;43.272;26.932;2023-03-01T16:54:10;25.90;;;22.20;;
7965;SDS011;4028;43.272;26.932;2023-03-01T16:56:36;25.00;;;20.83;;